createdAt,value
2023-02-02T06:53:52.219Z,523.00
2023-02-02T06:58:52.045Z,576.00
2023-02-02T07:02:52.280Z,587.00
2023-02-02T07:03:52.004Z,594.00
2023-02-02T07:04:51.987Z,606.00
2023-02-02T07:05:52.012Z,619.00
2023-02-02T07:06:51.974Z,621.00
2023-02-02T07:09:02.736Z,626.00
2023-02-02T07:11:12.445Z,628.00
2023-02-02T07:11:51.939Z,627.00
2023-02-02T07:13:51.931Z,631.00
2023-02-02T07:14:51.898Z,632.00
2023-02-02T07:15:51.988Z,635.00
2023-02-02T07:16:51.878Z,637.00
2023-02-02T07:18:51.889Z,645.00
2023-02-02T07:20:51.854Z,636.00
2023-02-02T07:21:51.848Z,639.00
2023-02-02T07:22:51.834Z,638.00
2023-02-02T07:23:51.831Z,642.00
2023-02-02T07:26:51.901Z,635.00
2023-02-02T07:27:51.786Z,638.00
2023-02-02T07:29:51.769Z,638.00
2023-02-02T07:30:51.907Z,638.00
2023-02-02T07:31:51.835Z,638.00
2023-02-02T07:32:51.744Z,635.00
2023-02-02T07:33:51.738Z,637.00
2023-02-02T07:34:51.750Z,638.00
2023-02-02T07:35:51.731Z,637.00
2023-02-02T07:36:51.709Z,636.00
2023-02-02T07:37:51.707Z,637.00
2023-02-02T07:38:51.702Z,635.00
2023-02-02T07:39:51.686Z,632.00
2023-02-02T07:40:51.677Z,628.00
2023-02-02T07:41:51.667Z,635.00
2023-02-02T07:42:51.668Z,634.00
2023-02-02T07:45:51.624Z,631.00
2023-02-02T07:46:51.679Z,635.00
2023-02-02T07:47:51.613Z,637.00
2023-02-02T07:48:51.721Z,637.00
2023-02-02T07:49:51.605Z,636.00
2023-02-02T07:51:51.576Z,638.00
2023-02-02T07:52:51.564Z,637.00
2023-02-02T07:53:51.704Z,633.00
2023-02-02T07:54:51.700Z,638.00
2023-02-02T07:55:51.703Z,638.00
2023-02-02T07:56:51.534Z,639.00
2023-02-02T07:58:51.512Z,634.00
2023-02-02T07:59:51.505Z,633.00
2023-02-02T08:00:51.893Z,631.00
2023-02-02T08:01:51.558Z,634.00
2023-02-02T08:02:51.520Z,631.00
2023-02-02T08:03:51.495Z,627.00
2023-02-02T08:04:51.460Z,630.00
2023-02-02T08:05:51.710Z,629.00
2023-02-02T08:06:51.517Z,627.00
2023-02-02T08:07:51.737Z,628.00
2023-02-02T08:08:51.428Z,626.00
2023-02-02T08:09:51.423Z,628.00
2023-02-02T08:10:51.422Z,622.00
2023-02-02T08:11:51.417Z,623.00
2023-02-02T08:12:51.716Z,622.00
2023-02-02T08:13:51.387Z,619.00
2023-02-02T08:14:51.369Z,618.00
2023-02-02T08:16:51.357Z,626.00
2023-02-02T08:17:51.347Z,621.00
2023-02-02T08:18:51.335Z,620.00
2023-02-02T08:19:51.333Z,619.00
2023-02-02T08:20:51.714Z,621.00
2023-02-02T08:21:51.311Z,612.00
2023-02-02T08:22:51.362Z,614.00
2023-02-02T08:23:51.292Z,615.00
2023-02-02T08:24:51.299Z,617.00
2023-02-02T08:25:51.754Z,614.00
2023-02-02T08:26:51.333Z,615.00
2023-02-02T08:27:51.259Z,614.00
2023-02-02T08:28:51.240Z,614.00
2023-02-02T08:29:51.715Z,610.00
2023-02-02T08:30:51.299Z,609.00
2023-02-02T08:31:51.791Z,611.00
2023-02-02T08:32:51.231Z,607.00
2023-02-02T08:33:51.208Z,607.00
2023-02-02T08:34:51.195Z,608.00
2023-02-02T08:35:51.194Z,619.00
2023-02-02T08:36:51.241Z,631.00
2023-02-02T08:37:51.429Z,632.00
2023-02-02T08:38:51.204Z,647.00
2023-02-02T08:39:51.263Z,651.00
2023-02-02T08:40:51.154Z,651.00
2023-02-02T08:41:51.189Z,657.00
2023-02-02T08:42:52.125Z,664.00
2023-02-02T08:43:51.170Z,671.00
2023-02-02T08:46:01.236Z,690.00
2023-02-02T08:46:01.395Z,692.00
2023-02-02T08:46:51.162Z,693.00
2023-02-02T08:48:05.252Z,699.00
2023-02-02T08:48:51.077Z,693.00
2023-02-02T08:49:51.100Z,703.00
2023-02-02T08:50:51.233Z,712.00
2023-02-02T08:51:51.232Z,736.00
2023-02-02T08:52:51.043Z,754.00
2023-02-02T08:53:51.042Z,775.00
2023-02-02T08:54:51.281Z,764.00
2023-02-02T08:55:51.048Z,775.00
2023-02-02T08:56:51.052Z,780.00
2023-02-02T08:57:51.260Z,790.00
2023-02-02T08:58:51.044Z,791.00
2023-02-02T09:00:51.860Z,757.00
2023-02-02T09:01:51.137Z,731.00
2023-02-02T09:02:50.970Z,748.00
2023-02-02T09:03:50.958Z,728.00
2023-02-02T09:04:51.230Z,712.00
2023-02-02T09:05:51.932Z,697.00
2023-02-02T09:06:51.233Z,695.00
2023-02-02T09:07:51.236Z,681.00
2023-02-02T09:08:50.922Z,684.00
2023-02-02T09:09:50.934Z,689.00
2023-02-02T09:10:50.955Z,681.00
2023-02-02T09:11:50.917Z,690.00
2023-02-02T09:12:51.265Z,695.00
2023-02-02T09:13:50.890Z,710.00
2023-02-02T09:16:51.309Z,733.00
2023-02-02T09:17:50.863Z,733.00
2023-02-02T09:18:50.869Z,750.00
2023-02-02T09:19:50.855Z,732.00
2023-02-02T09:20:50.829Z,747.00
2023-02-02T09:21:51.278Z,739.00
2023-02-02T09:22:50.830Z,748.00
2023-02-02T09:23:50.817Z,768.00
2023-02-02T09:24:50.822Z,769.00
2023-02-02T09:25:50.818Z,773.00
2023-02-02T09:27:50.786Z,774.00
2023-02-02T09:28:51.122Z,773.00
2023-02-02T09:29:50.759Z,776.00
2023-02-02T09:30:50.817Z,793.00
2023-02-02T09:31:50.813Z,790.00
2023-02-02T09:33:50.734Z,794.00
2023-02-02T09:34:50.773Z,805.00
2023-02-02T09:36:22.494Z,822.00
2023-02-02T09:39:50.746Z,835.00
2023-02-02T09:44:50.765Z,825.00
2023-02-02T09:45:50.806Z,836.00
2023-02-02T09:47:50.755Z,816.00
2023-02-02T09:50:50.745Z,810.00
2023-02-02T09:52:50.808Z,782.00
2023-02-02T09:54:50.561Z,804.00
2023-02-02T09:57:50.749Z,830.00
2023-02-02T10:02:50.757Z,846.00
2023-02-02T10:03:50.789Z,875.00
2023-02-02T10:07:50.751Z,916.00
2023-02-02T10:12:50.788Z,887.00
2023-02-02T10:17:50.759Z,860.00
2023-02-02T10:18:50.759Z,843.00
2023-02-02T10:19:50.762Z,849.00
2023-02-02T10:24:50.818Z,867.00
2023-02-02T10:37:50.300Z,995.00
2023-02-02T10:50:21.934Z,1013.00
2023-02-02T11:09:50.925Z,1129.00
2023-02-02T13:58:48.512Z,731.00
2023-02-02T14:07:48.433Z,709.00
2023-02-02T16:14:47.325Z,603.00
2023-02-02T16:15:47.294Z,611.00
2023-02-02T16:16:47.404Z,606.00
2023-02-02T16:18:47.271Z,606.00
2023-02-02T16:19:47.260Z,606.00
2023-02-02T16:20:47.255Z,600.00
2023-02-02T16:21:47.240Z,608.00
2023-02-02T16:22:47.261Z,606.00
2023-02-02T16:23:47.224Z,603.00
2023-02-02T16:24:47.221Z,604.00
2023-02-02T16:25:47.217Z,602.00
2023-02-02T16:26:47.299Z,608.00
2023-02-02T16:27:47.192Z,602.00
2023-02-02T16:28:47.177Z,606.00
2023-02-02T16:29:47.189Z,603.00
2023-02-02T16:30:47.194Z,607.00
2023-02-02T16:31:47.227Z,603.00
2023-02-02T16:32:47.144Z,604.00
2023-02-02T16:33:47.157Z,605.00
2023-02-02T16:34:47.397Z,603.00
2023-02-02T16:35:47.129Z,605.00
2023-02-02T16:36:47.108Z,600.00
2023-02-02T16:37:47.102Z,604.00
2023-02-02T16:38:47.110Z,603.00
2023-02-02T16:39:47.138Z,599.00
2023-02-02T16:41:47.097Z,597.00
2023-02-02T16:43:47.043Z,600.00
2023-02-02T16:44:47.045Z,594.00
2023-02-02T16:45:47.045Z,597.00
2023-02-02T16:46:47.025Z,598.00
2023-02-02T16:47:47.032Z,596.00
2023-02-02T16:48:47.036Z,597.00
2023-02-02T16:49:46.989Z,599.00
2023-02-02T16:50:46.987Z,596.00
2023-02-02T16:52:46.962Z,593.00
2023-02-02T16:53:46.981Z,593.00
2023-02-02T16:54:46.971Z,589.00
2023-02-02T16:55:51.067Z,592.00
2023-02-02T17:13:46.821Z,584.00
2023-02-02T18:55:45.930Z,565.00
2023-02-02T18:56:45.923Z,563.00
2023-02-02T18:57:45.924Z,559.00
2023-02-02T18:58:45.899Z,557.00
2023-02-02T18:59:45.890Z,564.00
2023-02-02T19:00:45.881Z,563.00
2023-02-02T19:01:45.907Z,559.00
2023-02-02T19:02:45.919Z,567.00
2023-02-02T19:03:45.887Z,558.00
2023-02-02T19:04:45.845Z,560.00
2023-02-02T19:05:45.835Z,555.00
2023-02-02T19:06:45.824Z,563.00
2023-02-02T19:07:45.824Z,560.00
2023-02-02T19:08:45.810Z,563.00
2023-02-02T19:09:45.808Z,558.00
2023-02-02T19:10:45.797Z,559.00
2023-02-02T19:11:45.783Z,562.00
2023-02-02T19:12:45.773Z,556.00
